TimeCST,TemperatureF,Dew PointF,Humidity,Sea Level PressureIn,VisibilityMPH,Wind Direction,Wind SpeedMPH,Gust SpeedMPH,PrecipitationIn,Events,Conditions,WindDirDegrees,DateUTC
12:15 AM,15.8,5.0,62,30.62,10.0,Calm,Calm,-,N/A,,Partly Cloudy,0,2001-01-02 06:15:00
12:35 AM,14.0,5.0,67,30.62,10.0,North,3.5,-,N/A,,Clear,10,2001-01-02 06:35:00
12:55 AM,14.0,6.8,73,30.62,10.0,Calm,Calm,-,N/A,,Clear,0,2001-01-02 06:55:00
1:15 AM,12.2,6.8,79,30.63,10.0,Calm,Calm,-,N/A,,Clear,0,2001-01-02 07:15:00
1:35 AM,12.2,6.8,79,30.63,10.0,Calm,Calm,-,N/A,,Clear,0,2001-01-02 07:35:00
1:55 AM,12.2,6.8,79,30.64,10.0,Calm,Calm,-,N/A,,Clear,0,2001-01-02 07:55:00
2:15 AM,10.4,5.0,79,30.65,10.0,Calm,Calm,-,N/A,,Clear,0,2001-01-02 08:15:00
2:35 AM,12.2,6.8,79,30.66,10.0,NNE,3.5,-,N/A,,Clear,20,2001-01-02 08:35:00
2:55 AM,12.2,5.0,73,30.66,10.0,Calm,Calm,-,N/A,,Clear,0,2001-01-02 08:55:00
3:15 AM,10.4,5.0,79,30.66,10.0,Calm,Calm,-,N/A,,Clear,0,2001-01-02 09:15:00
3:35 AM,10.4,5.0,79,30.66,10.0,Calm,Calm,-,N/A,,Clear,0,2001-01-02 09:35:00
3:55 AM,10.4,6.8,85,30.67,10.0,Calm,Calm,-,N/A,,Clear,0,2001-01-02 09:55:00
4:15 AM,8.6,3.2,79,30.67,10.0,Calm,Calm,-,N/A,,Clear,0,2001-01-02 10:15:00
4:35 AM,8.6,3.2,79,30.67,10.0,Calm,Calm,-,N/A,,Clear,0,2001-01-02 10:35:00
4:55 AM,8.6,5.0,85,30.68,10.0,Calm,Calm,-,N/A,,Clear,0,2001-01-02 10:55:00
5:15 AM,8.6,6.8,92,30.68,10.0,Calm,Calm,-,N/A,,Clear,0,2001-01-02 11:15:00
5:35 AM,8.6,5.0,85,30.69,10.0,Calm,Calm,-,N/A,,Clear,0,2001-01-02 11:35:00
5:55 AM,8.6,3.2,79,30.70,10.0,Calm,Calm,-,N/A,,Clear,0,2001-01-02 11:55:00
6:15 AM,8.6,3.2,79,30.70,10.0,Calm,Calm,-,N/A,,Clear,0,2001-01-02 12:15:00
6:35 AM,6.8,1.4,79,30.70,10.0,Calm,Calm,-,N/A,,Clear,0,2001-01-02 12:35:00
6:55 AM,6.8,3.2,85,30.71,10.0,Calm,Calm,-,N/A,,Clear,0,2001-01-02 12:55:00
7:15 AM,6.8,3.2,85,30.72,10.0,Calm,Calm,-,N/A,,Clear,0,2001-01-02 13:15:00
7:35 AM,6.8,1.4,79,30.73,10.0,Calm,Calm,-,N/A,,Clear,0,2001-01-02 13:35:00
7:55 AM,6.8,3.2,85,30.74,10.0,Calm,Calm,-,N/A,,Clear,0,2001-01-02 13:55:00
8:15 AM,8.6,5.0,85,30.74,9.0,Calm,Calm,-,N/A,,Clear,0,2001-01-02 14:15:00
8:35 AM,10.4,6.8,85,30.75,10.0,Calm,Calm,-,N/A,,Clear,0,2001-01-02 14:35:00
8:55 AM,12.2,6.8,79,30.76,10.0,Calm,Calm,-,N/A,,Clear,0,2001-01-02 14:55:00
9:15 AM,12.2,6.8,79,30.77,10.0,Calm,Calm,-,N/A,,Clear,0,2001-01-02 15:15:00
9:35 AM,14.0,6.8,73,30.77,10.0,Calm,Calm,-,N/A,,Clear,0,2001-01-02 15:35:00
9:55 AM,15.8,6.8,68,30.78,10.0,Calm,Calm,-,N/A,,Clear,0,2001-01-02 15:55:00
10:15 AM,17.6,8.6,68,30.78,10.0,Calm,Calm,-,N/A,,Clear,0,2001-01-02 16:15:00
10:35 AM,17.6,6.8,63,30.78,10.0,East,3.5,-,N/A,,Clear,80,2001-01-02 16:35:00
10:55 AM,19.4,6.8,58,30.78,10.0,NNE,3.5,-,N/A,,Clear,30,2001-01-02 16:55:00
11:15 AM,19.4,6.8,58,30.77,10.0,Calm,Calm,-,N/A,,Clear,0,2001-01-02 17:15:00
11:35 AM,21.2,6.8,54,30.76,10.0,Calm,Calm,-,N/A,,Clear,0,2001-01-02 17:35:00
11:55 AM,21.2,8.6,58,30.74,10.0,Calm,Calm,-,N/A,,Clear,0,2001-01-02 17:55:00
12:15 PM,21.2,6.8,54,30.73,10.0,East,3.5,-,N/A,,Clear,100,2001-01-02 18:15:00
12:35 PM,21.2,8.6,58,30.72,10.0,East,3.5,-,N/A,,Clear,90,2001-01-02 18:35:00
12:55 PM,23.0,6.8,50,30.71,10.0,Calm,Calm,-,N/A,,Clear,0,2001-01-02 18:55:00
1:15 PM,24.8,8.6,50,30.70,10.0,East,3.5,-,N/A,,Clear,100,2001-01-02 19:15:00
1:35 PM,24.8,8.6,50,30.69,10.0,Calm,Calm,-,N/A,,Clear,0,2001-01-02 19:35:00
1:55 PM,24.8,8.6,50,30.69,10.0,East,3.5,-,N/A,,Clear,80,2001-01-02 19:55:00
2:15 PM,26.6,10.4,51,30.68,10.0,East,3.5,-,N/A,,Clear,80,2001-01-02 20:15:00
2:35 PM,26.6,8.6,47,30.68,10.0,SSE,3.5,-,N/A,,Clear,160,2001-01-02 20:35:00
2:55 PM,26.6,10.4,51,30.67,10.0,ENE,3.5,-,N/A,,Clear,70,2001-01-02 20:55:00
3:15 PM,26.6,10.4,51,30.66,10.0,East,3.5,-,N/A,,Clear,80,2001-01-02 21:15:00
3:35 PM,26.6,8.6,47,30.66,10.0,SSW,3.5,-,N/A,,Clear,210,2001-01-02 21:35:00
3:55 PM,26.6,8.6,47,30.66,10.0,Calm,Calm,-,N/A,,Clear,0,2001-01-02 21:55:00
4:15 PM,26.6,8.6,47,30.65,10.0,WSW,4.6,-,N/A,,Clear,250,2001-01-02 22:15:00
4:35 PM,26.6,8.6,47,30.65,10.0,SW,3.5,-,N/A,,Clear,220,2001-01-02 22:35:00
4:55 PM,26.6,8.6,47,30.64,10.0,SSW,3.5,-,N/A,,Clear,200,2001-01-02 22:55:00
5:15 PM,26.6,10.4,51,30.64,10.0,Calm,Calm,-,N/A,,Clear,0,2001-01-02 23:15:00
5:35 PM,24.8,10.4,54,30.64,10.0,Calm,Calm,-,N/A,,Clear,0,2001-01-02 23:35:00
5:55 PM,24.8,10.4,54,30.65,10.0,Calm,Calm,-,N/A,,Clear,0,2001-01-02 23:55:00
6:15 PM,24.8,10.4,54,30.65,10.0,Calm,Calm,-,N/A,,Clear,0,2001-01-03 00:15:00
6:35 PM,21.2,10.4,63,30.64,10.0,Calm,Calm,-,N/A,,Clear,0,2001-01-03 00:35:00
6:55 PM,21.2,10.4,63,30.65,10.0,Calm,Calm,-,N/A,,Clear,0,2001-01-03 00:55:00
7:15 PM,19.4,10.4,68,30.64,10.0,Calm,Calm,-,N/A,,Clear,0,2001-01-03 01:15:00
7:35 PM,19.4,10.4,68,30.64,10.0,Calm,Calm,-,N/A,,Clear,0,2001-01-03 01:35:00
7:55 PM,19.4,10.4,68,30.63,10.0,Calm,Calm,-,N/A,,Clear,0,2001-01-03 01:55:00
8:15 PM,17.6,8.6,68,30.64,10.0,Calm,Calm,-,N/A,,Clear,0,2001-01-03 02:15:00
8:35 PM,15.8,10.4,79,30.64,10.0,Calm,Calm,-,N/A,,Clear,0,2001-01-03 02:35:00
8:55 PM,17.6,8.6,68,30.64,10.0,Calm,Calm,-,N/A,,Clear,0,2001-01-03 02:55:00
9:15 PM,17.6,8.6,68,30.63,10.0,Calm,Calm,-,N/A,,Clear,0,2001-01-03 03:15:00
9:35 PM,17.6,10.4,73,30.62,10.0,Calm,Calm,-,N/A,,Clear,0,2001-01-03 03:35:00
9:55 PM,15.8,8.6,73,30.62,10.0,Calm,Calm,-,N/A,,Clear,0,2001-01-03 03:55:00
10:15 PM,15.8,8.6,73,30.62,10.0,Calm,Calm,-,N/A,,Clear,0,2001-01-03 04:15:00
10:35 PM,14.0,8.6,79,30.61,10.0,Calm,Calm,-,N/A,,Clear,0,2001-01-03 04:35:00
10:55 PM,14.0,10.4,86,30.61,10.0,Calm,Calm,-,N/A,,Clear,0,2001-01-03 04:55:00
11:15 PM,14.0,8.6,79,30.59,10.0,Calm,Calm,-,N/A,,Clear,0,2001-01-03 05:15:00
11:35 PM,12.2,8.6,85,30.59,10.0,Calm,Calm,-,N/A,,Clear,0,2001-01-03 05:35:00
11:55 PM,12.2,8.6,85,30.58,10.0,Calm,Calm,-,N/A,,Clear,0,2001-01-03 05:55:00